Steptoe Valley WMA, Nevada Weather observations

Data are for 10 minute period ending at time listed.
 Day   Time   Solar   Ave.   Ave.  Ave.  Vector  Max.   Baro.   Total    
  of    of     Rad.   Air    Rel.  Wind   Wind   Wind  Press.  Precip.   
Year   Day            Temp.  Hum.  Speed  Dir.   Gust                    
2014   (PST)  Kw/m2    F      %     mph   deg.    mph    mb.     in.     
-------------------------------------------------------------------------
 303    3:50   0.00   23.4    69    3.4   168     5.0   808.6    0.00 
 303    4:00   0.00   28.3    63    2.3   190     4.7   808.5    0.00 
 303    4:10   0.00   28.9    59    2.4   183     5.7   808.6    0.00 
 303    4:20   0.00   25.6    66    4.4   186     5.8   808.6    0.00 
 303    4:30   0.00   23.9    70    2.7   174     4.2   808.6    0.00 
 303    4:40   0.00   27.0    62    4.2   174     9.0   808.5    0.00 
 303    4:50   0.00   28.2    57    4.9   171     8.3   808.5    0.00 
 303    5:00   0.00   27.0    60    0.9   302     2.6   808.5    0.00 
 303    5:10   0.00   25.3    64    0.7   199     2.8   808.5    0.00 
 303    5:20   0.00   23.2    66    1.2   354     2.8   808.4    0.00 
 303    5:30   0.00   21.7    71    0.5   191     2.9   808.4    0.00 
 303    5:40   0.00   20.6    72    1.9   345     3.6   808.5    0.00 
 303    5:50   0.00   20.6    75    0.9   242     3.3   808.4    0.00 
 303    6:00   0.00   23.8    70    6.3   168    10.3   808.3    0.00 
 303    6:10   0.00   24.1    66    7.8   173    11.6   808.4    0.00 
 303    6:20   0.01   23.2    66    7.0   170    10.1   808.4    0.00 
 303    6:30   0.01   23.3    68    6.7   185     8.9   808.4    0.00 
 303    6:40   0.01   25.8    68    6.4   187     8.0   808.4    0.00 
 303    6:50   0.02   27.3    64    6.8   193     8.8   808.5    0.00 
 303    7:00   0.07   27.8    64    5.0   179     7.9   808.5    0.00 
 303    7:10   0.16   32.2    55    7.9   179    11.5   808.6    0.00 
 303    7:20   0.19   34.5    50    8.3   178    11.1   808.8    0.00 
 303    7:30   0.23   36.1    47    7.4   188     9.9   808.8    0.00 
 303    7:40   0.26   39.7    44    6.2   206     9.4   808.9    0.00 
 303    7:50   0.29   43.5    38    7.5   187    10.4   808.9    0.00 
 303    8:00   0.29   43.6    37    7.9   180    10.9   808.8    0.00 
 303    8:10   0.33   46.0    35    8.3   178    11.8   808.6    0.00 
 303    8:20   0.37   47.8    33    8.2   174    11.2   808.5    0.00 
 303    8:30   0.40   50.4    30    7.4   182    10.2   808.4    0.00 
 303    8:40   0.40   53.9    27    7.5   179    11.4   808.2    0.00 
 303    8:50   0.46   55.5    25    8.8   178    12.4   808.1    0.00 
 303    9:00   0.47   57.0    24    7.6   173     9.9   808.0    0.00 
 303    9:10   0.51   59.4    21    8.1   155    11.2   807.8    0.00 
 303    9:20   0.52   60.6    20    8.6   154    11.4   807.6    0.00 
 303    9:30   0.54   62.1    19    9.1   159    12.3   807.5    0.00 
 303    9:40   0.56   63.7    18    8.2   159    11.8   807.5    0.00 
 303    9:50   0.57   65.3    17    8.7   157    12.9   807.4    0.00 
 303   10:00   0.57   66.3    16    9.5   166    16.9   807.4    0.00 
 303   10:10   0.59   66.2    15   10.0   150    15.1   807.4    0.00 
 303   10:20   0.59   66.9    15    9.6   153    15.1   807.4    0.00 
 303   10:30   0.61   66.8    15    9.4   142    14.5   807.4    0.00 
 303   10:40   0.66   68.0    14   11.4   173    15.6   807.2    0.00 
 303   10:50   0.66   68.3    14   10.8   168    16.1   807.2    0.00 
 303   11:00   0.63   68.0    14   11.0   155    18.2   807.1    0.00 
 303   11:10   0.61   68.3    14   11.9   156    18.4   807.0    0.00 
 303   11:20   0.63   68.7    13   11.5   160    17.0   806.9    0.00 
 303   11:30   0.59   69.0    13   11.9   169    17.7   806.7    0.00 
 303   11:40   0.59   68.4    13   12.0   172    17.5   806.6    0.00 
 303   11:50   0.46   68.2    14   12.6   170    18.1   806.6    0.00 
 303   12:00   0.58   68.3    14   11.8   173    16.7   806.5    0.00 
 303   12:10   0.44   67.7    14   12.2   170    18.9   806.4    0.00 
 303   12:20   0.71   69.5    13   11.3   166    19.5   806.2    0.00 
 303   12:30   0.67   70.6    12   12.0   172    20.2   806.0    0.00 
 303   12:40   0.59   69.9    13   11.7   166    18.6   806.0    0.00 
 303   12:50   0.61   69.9    13   11.7   170    18.3   805.9    0.00 
 303   13:00   0.61   69.9    13   12.5   167    18.1   805.8    0.00 
 303   13:10   0.54   69.9    13   11.9   164    18.9   805.7    0.00 
 303   13:20   0.35   68.7    14   12.7   162    19.4   805.7    0.00 
 303   13:30   0.41   68.4    14   11.2   164    18.1   805.6    0.00 
 303   13:40   0.31   67.4    14   12.4   158    19.1   805.4    0.00 
 303   13:50   0.51   68.7    14   11.0   155    18.0   805.4    0.00 
 303   14:00   0.50   69.8    13   11.7   159    17.1   805.2    0.00 
 303   14:10   0.40   69.3    14   10.8   170    17.1   805.2    0.00 
 303   14:20   0.35   68.3    14   10.3   166    15.3   805.2    0.00 
 303   14:30   0.38   68.6    14   10.6   164    18.8   805.2    0.00 
 303   14:40   0.31   68.5    14   10.4   167    15.5   805.1    0.00 
 303   14:50   0.32   68.6    13    8.7   175    12.7   805.0    0.00 
 303   15:00   0.23   67.9    14   10.3   175    16.6   804.8    0.00 
 303   15:10   0.22   67.4    14   10.8   170    15.9   804.8    0.00 
 303   15:20   0.20   67.1    14   12.3   174    17.5   804.8    0.00 
 303   15:30   0.15   65.5    15    9.9   179    15.0   804.8    0.00 
 303   15:40   0.17   66.1    15    8.8   184    13.1   804.7    0.00 
 303   15:50   0.11   64.8    16    7.7   188    10.9   804.7    0.00 
 303   16:00   0.05   62.0    18    6.2   191    10.3   804.7    0.00 
 303   16:10   0.03   58.0    21    4.1   178     6.2   804.6    0.00 
 303   16:20   0.02   55.4    23    4.2   166     6.0   804.5    0.00 
 303   16:30   0.02   56.1    22    4.4   167     5.8   804.3    0.00 
 303   16:40   0.01   56.2    22    5.6   141     8.7   804.3    0.00 
 303   16:50   0.00   55.4    21    7.3   120     9.9   804.3    0.00 
 303   17:00   0.00   54.6    22    7.2   119     8.9   804.4    0.00 
 303   17:10   0.00   53.5    22    6.6   116     7.8   804.5    0.00 
 303   17:20   0.00   53.1    23    7.1   124     9.9   804.6    0.00 
 303   17:30   0.00   53.4    24    7.8   127     9.8   804.6    0.00 
 303   17:40   0.00   53.2    24    8.1   128    10.0   804.7    0.00 
 303   17:50   0.00   52.2    24    8.0   121    10.0   804.6    0.00 
 303   18:00   0.00   51.8    25    8.0   122     9.7   804.6    0.00 
 303   18:10   0.00   52.9    24    7.7   122    10.1   804.6    0.00 
 303   18:20   0.00   49.4    28    5.0   164     8.3   804.7    0.00 
 303   18:30   0.00   41.6    39    4.7   174     6.2   804.7    0.00 
 303   18:40   0.00   42.4    36    5.2   166     6.7   804.8    0.00 
 303   18:50   0.00   45.2    32    5.0   166     7.7   804.7    0.00 
 303   19:00   0.00   46.3    30    6.1   148     8.3   804.6    0.00 
 303   19:10   0.00   45.6    32    5.8   175     8.7   804.5    0.00 
 303   19:20   0.00   42.3    35    5.3   164     8.0   804.7    0.00 
 303   19:30   0.00   43.2    35    7.2   161    11.0   804.7    0.00 
 303   19:40   0.00   46.5    31    7.2   139    10.9   804.7    0.00 
 303   19:50   0.00   44.9    32    5.5   151     8.8   804.5    0.00 
 303   20:00   0.00   43.7    36    4.2   180    11.5   804.4    0.00 
 303   20:10   0.00   48.8    32    9.8   150    13.5   804.3    0.00 
 303   20:20   0.00   52.1    30   10.6   148    14.1   804.2    0.00 
 303   20:30   0.00   49.3    31   10.1   158    13.4   804.3    0.00 
 303   20:40   0.00   43.7    35    8.9   161    11.7   804.4    0.00 
 303   20:50   0.00   42.7    37    7.9   156    10.5   804.5    0.00 
 303   21:00   0.00   42.9    38    7.9   156    11.3   804.4    0.00 
 303   21:10   0.00   43.6    37    8.1   153    11.0   804.4    0.00 
 303   21:20   0.00   43.5    38    7.0   163     9.6   804.4    0.00 
 303   21:30   0.00   43.7    38    8.2   158    14.0   804.4    0.00 
 303   21:40   0.00   42.5    39    8.8   159    12.0   804.4    0.00 
 303   21:50   0.00   41.6    42    7.2   178    10.6   804.3    0.00 
 303   22:00   0.00   39.7    45    6.4   180     9.2   804.3    0.00 
 303   22:10   0.00   39.7    45    6.7   166     9.5   804.2    0.00 
 303   22:20   0.00   40.7    44    6.2   171     9.1   804.1    0.00 
 303   22:30   0.00   41.4    44    5.6   170     7.4   804.1    0.00 
 303   22:40   0.00   42.5    42    6.0   163     8.0   804.0    0.00 
 303   22:50   0.00   42.4    43    6.5   168     8.7   804.0    0.00 
 303   23:00   0.00   42.1    44    6.3   169     8.6   804.0    0.00 
 303   23:10   0.00   41.9    44    7.0   166     9.4   804.0    0.00 
 303   23:20   0.00   41.0    45    6.4   174     8.4   803.9    0.00 
 303   23:30   0.00   40.5    48    6.4   177     9.1   803.9    0.00 
 303   23:40   0.00   43.0    47    7.5   159    11.6   803.8    0.00 
 303   23:50   0.00   50.8    34    9.4   137    11.5   803.6    0.00 
 304    0:00   0.00   50.4    34    7.9   146    11.6   803.6    0.00 
 304    0:10   0.00   50.4    34    8.4   136    10.8   803.5    0.00 
 304    0:20   0.00   50.2    34    8.4   135    11.0   803.5    0.00 
 304    0:30   0.00   48.5    37    7.9   164    11.6   803.5    0.00 
 304    0:40   0.00   42.5    46    6.0   177     9.4   803.5    0.00 
 304    0:50   0.00   47.2    41    8.3   143    11.5   803.2    0.00 
 304    1:00   0.00   49.9    36    8.3   153    10.7   803.1    0.00 
 304    1:10   0.00   50.8    35    8.5   155    11.4   803.1    0.00 
 304    1:20   0.00   48.8    37    7.7   169    11.4   803.2    0.00 
 304    1:30   0.00   42.2    48    6.9   172     9.8   803.2    0.00 
 304    1:40   0.00   46.8    42    8.8   154    14.2   803.1    0.00 
 304    1:50   0.00   50.0    36   11.1   139    14.1   802.9    0.00 
 304    2:00   0.00   49.8    36    9.8   146    14.0   802.8    0.00 
 304    2:10   0.00   44.4    44    8.1   172    11.0   802.7    0.00 
 304    2:20   0.00   43.9    46    8.5   166    11.2   802.7    0.00 
 304    2:30   0.00   48.0    39    9.4   149    12.4   802.6    0.00 
 304    2:40   0.00   45.9    42    7.5   176    12.5   802.6    0.00 
 304    2:50   0.00   39.3    54    5.5   167     7.4   802.7    0.00 
 304    3:00   0.00   37.8    57    6.7   167     8.6   802.6    0.00 
 304    3:10   0.00   43.0    49    8.5   142    12.0   802.4    0.00 
 304    3:20   0.00   47.1    41   10.1   140    13.8   802.3    0.00 
 304    3:30   0.00   47.2    41    9.6   148    14.0   802.2    0.00 
 304    3:40   0.00   46.1    42    7.3   159    10.7   802.2    0.00 

Return to Steptoe Valley WMA graphs page.


Western Regional Climate Center,wrcc@dri.edu